Terminal Aerodrome Forecast
Issued by NWS

Home | Current Version | Previous Version | Text Only | Print | Product List | Glossary On
Versions: 1 2 3 4 5 6 7 8 9 10 11 12 13 14 15 16 17 18 19 20 21
000
FTUS41 KBTV 210540 CCA
TAFMSS
TAF COR
KMSS 210540Z 2106/2206 05004KT 3SM BR SCT002 OVC090 WS020/22040KT
     FM210800 22011KT P6SM VCSH OVC060 WS020/23045KT
     FM211300 22012KT 6SM -SHRA BR OVC025
     FM211500 23011KT 4SM -SHRA BR OVC005
     FM212000 27011G17KT P6SM BKN045
     FM220400 32007KT P6SM FEW200=

USA.gov is the U.S. government's official web portal to all federal, state and local government web resources and services.